Des Moines, IA

12:18 PM CST on February 10, 2016 (GMT -0600)
Des Moines International | | Change Station
CLOSE
Current Station
Airport
Location: Des Moines,
Elevation: 965 ft
Nearby Weather Stations

Elev 965 ft 41.53 °N, 93.66 °W | Updated 24 minutes ago

Light Snow
Light Snow
17 °F
Feels Like 7 °F
N
8
Wind Variable Wind from ESE

Today
High -- | Low -- °F
--% Chance of Precip.
Yesterday
High -- | Low -- °F
Precip. -- in
Pressure 30.12 in
Visibility 6.0 miles
Clouds Overcast 4300 ft
Windchill 7 °F
Dew Point 11 °F
Humidity 77%
Rainfall 0.06 in
Snow Depth Not available.
7:16 AM 5:41 PM
Waxing Crescent, 6% visible
METAR KDSM 101754Z 11007KT 6SM -SN OVC043 M08/M12 A3007 RMK AO2 SLP198 4/003 933001 P0001 60006 T10831117 11078 21089 58010
Pressure 30.12 in
Visibility 6.0 miles
Clouds Overcast 4300 ft
Windchill 7 °F
Dew Point 11 °F
Humidity 77%
Rainfall 0.06 in
Snow Depth Not available.
7:16 AM 5:41 PM
Waxing Crescent, 6% visible
METAR KDSM 101754Z 11007KT 6SM -SN OVC043 M08/M12 A3007 RMK AO2 SLP198 4/003 933001 P0001 60006 T10831117 11078 21089 58010

10-Day Weather Forecast

Almanac

Astronomy

Feb. 10, 2016 Rise Set
Actual Time
Civil Twilight
Nautical Twilight
Astronomical Twilight
Moon
Length of Visible Light
Length of Day
Tomorrow will be .
, % of the Moon is Illuminated

Today's Extremes

State Highs State Lows

Community

WunderPhotos

Upload Photos

1,891,906 photos uploaded!

WunderBlog® & News

Nearby

Air Quality

  Air Quality AQ Index Pollutant
Not available.

Snow Depth

Station Depth Elevation

Earthquake Activity

City Distance Mag. Time & Date
Minimum magnitude displayed is 2.5.

Coastal Water Temperatures

Place Temperature

Stations

Nearby Weather Stations

Station Location Temp. Windchill Dew Point Humidity Wind Precip. Elev Updated Type
                   

Watches & Warnings

There are currently no watches in effect.